sensor_id;sensor_type;location;lat;lon;timestamp;pressure;altitude;pressure_sealevel;temperature;humidity
29385;BME280;16367;48.736;9.218;2023-02-19T00:01:50;-23497.03;;;10.40;100.00
29385;BME280;16367;48.736;9.218;2023-02-19T00:03:55;-23499.06;;;10.46;100.00
29385;BME280;16367;48.736;9.218;2023-02-19T00:06:00;-23503.50;;;10.61;100.00
29385;BME280;16367;48.736;9.218;2023-02-19T00:08:03;-23503.69;;;10.61;100.00
29385;BME280;16367;48.736;9.218;2023-02-19T00:10:06;-23500.34;;;10.51;100.00
29385;BME280;16367;48.736;9.218;2023-02-19T00:12:09;-23499.56;;;10.48;100.00
29385;BME280;16367;48.736;9.218;2023-02-19T00:14:16;-23501.63;;;10.55;100.00
29385;BME280;16367;48.736;9.218;2023-02-19T00:16:21;-23497.19;;;10.40;100.00
29385;BME280;16367;48.736;9.218;2023-02-19T00:18:24;-23498.75;;;10.45;100.00
29385;BME280;16367;48.736;9.218;2023-02-19T00:20:26;-23499.41;;;10.47;100.00
29385;BME280;16367;48.736;9.218;2023-02-19T00:22:29;-23502.72;;;10.58;100.00
29385;BME280;16367;48.736;9.218;2023-02-19T00:24:32;-23498.28;;;10.44;100.00
29385;BME280;16367;48.736;9.218;2023-02-19T00:26:37;-23500.34;;;10.51;100.00
29385;BME280;16367;48.736;9.218;2023-02-19T00:28:40;-23499.88;;;10.49;100.00
29385;BME280;16367;48.736;9.218;2023-02-19T00:30:44;-23498.13;;;10.43;100.00
29385;BME280;16367;48.736;9.218;2023-02-19T00:32:49;-23497.81;;;10.42;100.00
29385;BME280;16367;48.736;9.218;2023-02-19T00:34:51;-23499.72;;;10.48;100.00
29385;BME280;16367;48.736;9.218;2023-02-19T00:36:54;-23503.69;;;10.61;100.00
29385;BME280;16367;48.736;9.218;2023-02-19T00:38:57;-23500.97;;;10.53;100.00
29385;BME280;16367;48.736;9.218;2023-02-19T00:41:00;-23501.78;;;10.55;100.00
29385;BME280;16367;48.736;9.218;2023-02-19T00:43:19;-23503.34;;;10.60;99.61
29385;BME280;16367;48.736;9.218;2023-02-19T00:45:22;-23504.94;;;10.65;99.41
29385;BME280;16367;48.736;9.218;2023-02-19T00:47:26;-23500.03;;;10.49;99.67
29385;BME280;16367;48.736;9.218;2023-02-19T00:49:28;-23505.91;;;10.68;98.96
29385;BME280;16367;48.736;9.218;2023-02-19T00:51:33;-23502.56;;;10.58;99.15
29385;BME280;16367;48.736;9.218;2023-02-19T00:53:35;-23500.81;;;10.52;99.24
29385;BME280;16367;48.736;9.218;2023-02-19T00:55:38;-23505.91;;;10.68;98.63
29385;BME280;16367;48.736;9.218;2023-02-19T00:57:41;-23499.88;;;10.49;99.14
29385;BME280;16367;48.736;9.218;2023-02-19T00:59:43;-23496.72;;;10.39;99.38
29385;BME280;16367;48.736;9.218;2023-02-19T01:01:46;-23498.75;;;10.45;99.47
29385;BME280;16367;48.736;9.218;2023-02-19T01:03:51;-23495.59;;;10.35;100.00
29385;BME280;16367;48.736;9.218;2023-02-19T01:05:54;-23498.44;;;10.44;100.00
29385;BME280;16367;48.736;9.218;2023-02-19T01:07:56;-23493.84;;;10.30;99.89
29385;BME280;16367;48.736;9.218;2023-02-19T01:10:00;-23496.22;;;10.37;99.78
29385;BME280;16367;48.736;9.218;2023-02-19T01:12:03;-23497.34;;;10.41;100.00
29385;BME280;16367;48.736;9.218;2023-02-19T01:14:05;-23493.84;;;10.30;100.00
29385;BME280;16367;48.736;9.218;2023-02-19T01:16:11;-23493.84;;;10.30;100.00
29385;BME280;16367;48.736;9.218;2023-02-19T01:18:14;-23496.72;;;10.39;100.00
29385;BME280;16367;48.736;9.218;2023-02-19T01:20:18;-23494.16;;;10.31;100.00
29385;BME280;16367;48.736;9.218;2023-02-19T01:22:21;-23497.34;;;10.41;99.69
29385;BME280;16367;48.736;9.218;2023-02-19T01:24:24;-23493.22;;;10.28;100.00
29385;BME280;16367;48.736;9.218;2023-02-19T01:26:28;-23493.84;;;10.30;99.96
29385;BME280;16367;48.736;9.218;2023-02-19T01:28:31;-23494.16;;;10.31;100.00
29385;BME280;16367;48.736;9.218;2023-02-19T01:30:34;-23490.69;;;10.20;100.00
29385;BME280;16367;48.736;9.218;2023-02-19T01:32:38;-23492.59;;;10.26;100.00
29385;BME280;16367;48.736;9.218;2023-02-19T01:34:41;-23492.25;;;10.25;100.00
29385;BME280;16367;48.736;9.218;2023-02-19T01:36:45;-23493.22;;;10.28;100.00
29385;BME280;16367;48.736;9.218;2023-02-19T01:38:48;-23495.13;;;10.34;100.00
29385;BME280;16367;48.736;9.218;2023-02-19T01:40:55;-23492.25;;;10.25;100.00
29385;BME280;16367;48.736;9.218;2023-02-19T01:42:58;-23490.38;;;10.19;100.00
29385;BME280;16367;48.736;9.218;2023-02-19T01:45:23;-23484.97;;;10.02;100.00
29385;BME280;16367;48.736;9.218;2023-02-19T01:47:26;-23485.28;;;10.03;100.00
29385;BME280;16367;48.736;9.218;2023-02-19T01:49:31;-23487.50;;;10.10;100.00
29385;BME280;16367;48.736;9.218;2023-02-19T01:51:36;-23484.81;;;10.01;100.00
29385;BME280;16367;48.736;9.218;2023-02-19T01:53:44;-23484.97;;;10.02;100.00
29385;BME280;16367;48.736;9.218;2023-02-19T01:55:50;-23484.97;;;10.02;100.00
29385;BME280;16367;48.736;9.218;2023-02-19T01:57:54;-23485.75;;;10.04;100.00
29385;BME280;16367;48.736;9.218;2023-02-19T02:00:01;-23481.81;;;9.92;100.00
29385;BME280;16367;48.736;9.218;2023-02-19T02:02:05;-23484.34;;;10.00;100.00
29385;BME280;16367;48.736;9.218;2023-02-19T02:04:09;-23484.97;;;10.02;100.00
29385;BME280;16367;48.736;9.218;2023-02-19T02:06:17;-23483.38;;;9.97;100.00
29385;BME280;16367;48.736;9.218;2023-02-19T02:08:23;-23485.59;;;10.04;100.00
29385;BME280;16367;48.736;9.218;2023-02-19T02:10:46;-23480.69;;;9.88;100.00
29385;BME280;16367;48.736;9.218;2023-02-19T02:12:50;-23481.47;;;9.91;100.00
29385;BME280;16367;48.736;9.218;2023-02-19T02:14:53;-23485.28;;;10.03;100.00
29385;BME280;16367;48.736;9.218;2023-02-19T02:17:02;-23479.25;;;9.84;100.00
29385;BME280;16367;48.736;9.218;2023-02-19T02:19:24;-23480.22;;;9.87;100.00
29385;BME280;16367;48.736;9.218;2023-02-19T02:24:10;-23479.59;;;9.85;100.00
29385;BME280;16367;48.736;9.218;2023-02-19T02:26:31;-23479.25;;;9.84;100.00
29385;BME280;16367;48.736;9.218;2023-02-19T02:29:04;-23477.69;;;9.78;100.00
29385;BME280;16367;48.736;9.218;2023-02-19T02:31:16;-23478.78;;;9.82;100.00
29385;BME280;16367;48.736;9.218;2023-02-19T02:33:27;-23471.03;;;9.57;100.00
29385;BME280;16367;48.736;9.218;2023-02-19T02:35:37;-23472.59;;;9.62;100.00
29385;BME280;16367;48.736;9.218;2023-02-19T02:37:42;-23472.91;;;9.63;100.00
29385;BME280;16367;48.736;9.218;2023-02-19T02:39:46;-23473.41;;;9.65;100.00
29385;BME280;16367;48.736;9.218;2023-02-19T02:41:58;-23470.38;;;9.55;100.00
29385;BME280;16367;48.736;9.218;2023-02-19T02:44:18;-23466.91;;;9.44;100.00
29385;BME280;16367;48.736;9.218;2023-02-19T02:46:28;-23469.59;;;9.53;100.00
29385;BME280;16367;48.736;9.218;2023-02-19T02:48:35;-23473.88;;;9.66;100.00
29385;BME280;16367;48.736;9.218;2023-02-19T02:50:42;-23468.81;;;9.50;100.00
29385;BME280;16367;48.736;9.218;2023-02-19T02:52:49;-23470.06;;;9.54;100.00
29385;BME280;16367;48.736;9.218;2023-02-19T02:55:10;-23469.91;;;9.54;100.00
29385;BME280;16367;48.736;9.218;2023-02-19T02:57:14;-23471.34;;;9.58;100.00
29385;BME280;16367;48.736;9.218;2023-02-19T02:59:21;-23472.44;;;9.62;100.00
29385;BME280;16367;48.736;9.218;2023-02-19T03:01:29;-23471.03;;;9.57;100.00
29385;BME280;16367;48.736;9.218;2023-02-19T03:03:55;-23473.56;;;9.65;100.00
29385;BME280;16367;48.736;9.218;2023-02-19T03:06:02;-23473.88;;;9.66;100.00
29385;BME280;16367;48.736;9.218;2023-02-19T03:08:07;-23470.38;;;9.55;100.00
29385;BME280;16367;48.736;9.218;2023-02-19T03:10:13;-23474.03;;;9.67;100.00
29385;BME280;16367;48.736;9.218;2023-02-19T03:12:19;-23475.16;;;9.70;100.00
29385;BME280;16367;48.736;9.218;2023-02-19T03:14:42;-23469.91;;;9.54;100.00
29385;BME280;16367;48.736;9.218;2023-02-19T03:17:05;-23469.75;;;9.53;100.00
29385;BME280;16367;48.736;9.218;2023-02-19T03:19:28;-23463.09;;;9.32;100.00
29385;BME280;16367;48.736;9.218;2023-02-19T03:21:34;-23457.69;;;9.15;100.00
29385;BME280;16367;48.736;9.218;2023-02-19T03:23:38;-23456.28;;;9.11;100.00
29385;BME280;16367;48.736;9.218;2023-02-19T03:25:59;-23454.22;;;9.04;100.00
29385;BME280;16367;48.736;9.218;2023-02-19T03:28:07;-23449.94;;;8.90;100.00
29385;BME280;16367;48.736;9.218;2023-02-19T03:30:12;-23450.72;;;8.93;100.00
29385;BME280;16367;48.736;9.218;2023-02-19T03:32:22;-23448.03;;;8.84;100.00
29385;BME280;16367;48.736;9.218;2023-02-19T03:34:28;-23448.97;;;8.87;100.00
29385;BME280;16367;48.736;9.218;2023-02-19T03:36:35;-23444.22;;;8.72;100.00
29385;BME280;16367;48.736;9.218;2023-02-19T03:38:43;-23443.41;;;8.70;100.00
29385;BME280;16367;48.736;9.218;2023-02-19T03:40:53;-23447.72;;;8.83;100.00
29385;BME280;16367;48.736;9.218;2023-02-19T03:43:02;-23445.31;;;8.76;100.00
29385;BME280;16367;48.736;9.218;2023-02-19T03:45:21;-23447.53;;;8.83;100.00
29385;BME280;16367;48.736;9.218;2023-02-19T03:47:29;-23448.19;;;8.85;100.00
29385;BME280;16367;48.736;9.218;2023-02-19T03:49:34;-23443.09;;;8.69;100.00
29385;BME280;16367;48.736;9.218;2023-02-19T03:51:43;-23442.16;;;8.66;100.00
29385;BME280;16367;48.736;9.218;2023-02-19T03:53:52;-23440.88;;;8.62;100.00
29385;BME280;16367;48.736;9.218;2023-02-19T03:56:06;-23439.28;;;8.57;100.00
29385;BME280;16367;48.736;9.218;2023-02-19T03:58:14;-23439.59;;;8.58;100.00
29385;BME280;16367;48.736;9.218;2023-02-19T04:00:23;-23439.78;;;8.58;100.00
29385;BME280;16367;48.736;9.218;2023-02-19T04:02:32;-23441.84;;;8.65;100.00
29385;BME280;16367;48.736;9.218;2023-02-19T04:04:38;-23439.94;;;8.59;100.00
29385;BME280;16367;48.736;9.218;2023-02-19T04:06:51;-23443.91;;;8.71;100.00
29385;BME280;16367;48.736;9.218;2023-02-19T04:08:57;-23442.78;;;8.68;100.00
29385;BME280;16367;48.736;9.218;2023-02-19T04:11:02;-23445.00;;;8.75;100.00
29385;BME280;16367;48.736;9.218;2023-02-19T04:13:08;-23447.53;;;8.83;100.00
29385;BME280;16367;48.736;9.218;2023-02-19T04:15:15;-23445.31;;;8.76;100.00
29385;BME280;16367;48.736;9.218;2023-02-19T04:17:23;-23447.22;;;8.82;100.00
29385;BME280;16367;48.736;9.218;2023-02-19T04:19:32;-23444.22;;;8.72;100.00
29385;BME280;16367;48.736;9.218;2023-02-19T04:21:37;-23445.66;;;8.77;100.00
29385;BME280;16367;48.736;9.218;2023-02-19T04:23:42;-23442.00;;;8.65;100.00
29385;BME280;16367;48.736;9.218;2023-02-19T04:25:48;-23444.84;;;8.74;100.00
29385;BME280;16367;48.736;9.218;2023-02-19T04:27:52;-23444.38;;;8.73;100.00
29385;BME280;16367;48.736;9.218;2023-02-19T04:29:55;-23441.84;;;8.65;100.00
29385;BME280;16367;48.736;9.218;2023-02-19T04:31:57;-23446.75;;;8.80;100.00
29385;BME280;16367;48.736;9.218;2023-02-19T04:34:01;-23442.94;;;8.68;100.00
29385;BME280;16367;48.736;9.218;2023-02-19T04:36:06;-23446.59;;;8.80;100.00
29385;BME280;16367;48.736;9.218;2023-02-19T04:38:11;-23445.81;;;8.77;100.00
29385;BME280;16367;48.736;9.218;2023-02-19T04:40:14;-23446.75;;;8.80;100.00
29385;BME280;16367;48.736;9.218;2023-02-19T04:42:17;-23447.38;;;8.82;100.00
29385;BME280;16367;48.736;9.218;2023-02-19T04:44:20;-23444.69;;;8.74;100.00
29385;BME280;16367;48.736;9.218;2023-02-19T04:46:22;-23444.06;;;8.72;100.00
29385;BME280;16367;48.736;9.218;2023-02-19T04:48:25;-23449.44;;;8.89;100.00
29385;BME280;16367;48.736;9.218;2023-02-19T04:50:28;-23443.91;;;8.71;100.00
29385;BME280;16367;48.736;9.218;2023-02-19T04:52:32;-23446.91;;;8.81;100.00
29385;BME280;16367;48.736;9.218;2023-02-19T04:54:35;-23444.84;;;8.74;100.00
29385;BME280;16367;48.736;9.218;2023-02-19T04:56:38;-23448.97;;;8.87;100.00
29385;BME280;16367;48.736;9.218;2023-02-19T04:58:42;-23450.72;;;8.93;100.00
29385;BME280;16367;48.736;9.218;2023-02-19T05:00:50;-23449.44;;;8.89;100.00
29385;BME280;16367;48.736;9.218;2023-02-19T05:02:53;-23450.72;;;8.93;100.00
29385;BME280;16367;48.736;9.218;2023-02-19T05:04:56;-23453.56;;;9.02;100.00
29385;BME280;16367;48.736;9.218;2023-02-19T05:06:58;-23451.50;;;8.95;100.00
29385;BME280;16367;48.736;9.218;2023-02-19T05:09:02;-23452.94;;;9.00;100.00
29385;BME280;16367;48.736;9.218;2023-02-19T05:11:07;-23450.72;;;8.93;100.00
29385;BME280;16367;48.736;9.218;2023-02-19T05:13:11;-23446.28;;;8.79;100.00
29385;BME280;16367;48.736;9.218;2023-02-19T05:15:14;-23454.84;;;9.06;100.00
29385;BME280;16367;48.736;9.218;2023-02-19T05:17:16;-23453.91;;;9.03;100.00
29385;BME280;16367;48.736;9.218;2023-02-19T05:19:19;-23455.47;;;9.08;100.00
29385;BME280;16367;48.736;9.218;2023-02-19T05:21:22;-23453.91;;;9.03;100.00
29385;BME280;16367;48.736;9.218;2023-02-19T05:23:25;-23454.53;;;9.05;100.00
29385;BME280;16367;48.736;9.218;2023-02-19T05:25:30;-23450.72;;;8.93;100.00
29385;BME280;16367;48.736;9.218;2023-02-19T05:27:32;-23450.09;;;8.91;100.00
29385;BME280;16367;48.736;9.218;2023-02-19T05:29:35;-23452.47;;;8.98;100.00
29385;BME280;16367;48.736;9.218;2023-02-19T05:31:38;-23451.34;;;8.95;100.00
29385;BME280;16367;48.736;9.218;2023-02-19T05:33:41;-23448.50;;;8.86;100.00
29385;BME280;16367;48.736;9.218;2023-02-19T05:35:46;-23455.16;;;9.07;100.00
29385;BME280;16367;48.736;9.218;2023-02-19T05:37:49;-23456.75;;;9.12;100.00
29385;BME280;16367;48.736;9.218;2023-02-19T05:39:51;-23453.25;;;9.01;100.00
29385;BME280;16367;48.736;9.218;2023-02-19T05:41:55;-23452.31;;;8.98;100.00
29385;BME280;16367;48.736;9.218;2023-02-19T05:43:58;-23457.84;;;9.16;100.00
29385;BME280;16367;48.736;9.218;2023-02-19T05:46:01;-23455.47;;;9.08;100.00
29385;BME280;16367;48.736;9.218;2023-02-19T05:48:04;-23451.66;;;8.96;100.00
29385;BME280;16367;48.736;9.218;2023-02-19T05:50:07;-23451.03;;;8.94;100.00
29385;BME280;16367;48.736;9.218;2023-02-19T05:52:09;-23448.66;;;8.86;100.00
29385;BME280;16367;48.736;9.218;2023-02-19T05:54:12;-23444.06;;;8.72;100.00
29385;BME280;16367;48.736;9.218;2023-02-19T05:56:31;-23451.66;;;8.96;100.00
29385;BME280;16367;48.736;9.218;2023-02-19T05:58:35;-23451.19;;;8.94;100.00
29385;BME280;16367;48.736;9.218;2023-02-19T06:00:38;-23450.88;;;8.93;100.00
29385;BME280;16367;48.736;9.218;2023-02-19T06:02:41;-23452.31;;;8.98;100.00
29385;BME280;16367;48.736;9.218;2023-02-19T06:04:43;-23453.09;;;9.00;100.00
29385;BME280;16367;48.736;9.218;2023-02-19T06:06:47;-23454.84;;;9.06;100.00
29385;BME280;16367;48.736;9.218;2023-02-19T06:08:50;-23457.06;;;9.13;100.00
29385;BME280;16367;48.736;9.218;2023-02-19T06:10:53;-23452.47;;;8.98;100.00
29385;BME280;16367;48.736;9.218;2023-02-19T06:12:55;-23447.06;;;8.81;100.00
29385;BME280;16367;48.736;9.218;2023-02-19T06:14:59;-23449.13;;;8.88;100.00
29385;BME280;16367;48.736;9.218;2023-02-19T06:17:02;-23448.50;;;8.86;100.00
29385;BME280;16367;48.736;9.218;2023-02-19T06:19:04;-23445.97;;;8.78;100.00
29385;BME280;16367;48.736;9.218;2023-02-19T06:21:09;-23442.31;;;8.66;100.00
29385;BME280;16367;48.736;9.218;2023-02-19T06:23:12;-23437.88;;;8.52;100.00
29385;BME280;16367;48.736;9.218;2023-02-19T06:25:16;-23430.41;;;8.29;100.00
29385;BME280;16367;48.736;9.218;2023-02-19T06:27:18;-23432.78;;;8.36;100.00
29385;BME280;16367;48.736;9.218;2023-02-19T06:29:21;-23433.91;;;8.40;100.00
29385;BME280;16367;48.736;9.218;2023-02-19T06:31:25;-23436.13;;;8.47;100.00
29385;BME280;16367;48.736;9.218;2023-02-19T06:33:28;-23434.53;;;8.42;100.00
29385;BME280;16367;48.736;9.218;2023-02-19T06:35:31;-23434.22;;;8.41;100.00
29385;BME280;16367;48.736;9.218;2023-02-19T06:37:33;-23436.59;;;8.48;100.00
29385;BME280;16367;48.736;9.218;2023-02-19T06:39:36;-23435.47;;;8.45;100.00
29385;BME280;16367;48.736;9.218;2023-02-19T06:41:39;-23428.97;;;8.24;100.00
29385;BME280;16367;48.736;9.218;2023-02-19T06:43:41;-23432.31;;;8.35;100.00
29385;BME280;16367;48.736;9.218;2023-02-19T06:45:44;-23432.00;;;8.34;100.00
29385;BME280;16367;48.736;9.218;2023-02-19T06:47:48;-23434.22;;;8.41;100.00
29385;BME280;16367;48.736;9.218;2023-02-19T06:49:51;-23433.59;;;8.39;100.00
29385;BME280;16367;48.736;9.218;2023-02-19T06:51:53;-23435.47;;;8.45;100.00
29385;BME280;16367;48.736;9.218;2023-02-19T06:53:56;-23430.41;;;8.29;100.00
29385;BME280;16367;48.736;9.218;2023-02-19T06:56:00;-23434.53;;;8.42;100.00
29385;BME280;16367;48.736;9.218;2023-02-19T06:58:03;-23434.22;;;8.41;100.00
29385;BME280;16367;48.736;9.218;2023-02-19T07:00:07;-23437.88;;;8.52;100.00
29385;BME280;16367;48.736;9.218;2023-02-19T07:02:10;-23435.47;;;8.45;100.00
29385;BME280;16367;48.736;9.218;2023-02-19T07:04:15;-23439.94;;;8.59;100.00
29385;BME280;16367;48.736;9.218;2023-02-19T07:06:18;-23441.53;;;8.64;100.00
29385;BME280;16367;48.736;9.218;2023-02-19T07:08:20;-23443.25;;;8.69;100.00
29385;BME280;16367;48.736;9.218;2023-02-19T07:10:23;-23445.97;;;8.78;100.00
29385;BME280;16367;48.736;9.218;2023-02-19T07:12:26;-23445.97;;;8.78;100.00
29385;BME280;16367;48.736;9.218;2023-02-19T07:14:29;-23445.16;;;8.75;100.00
29385;BME280;16367;48.736;9.218;2023-02-19T07:16:33;-23440.25;;;8.60;100.00
29385;BME280;16367;48.736;9.218;2023-02-19T07:18:37;-23442.16;;;8.66;100.00
29385;BME280;16367;48.736;9.218;2023-02-19T07:20:41;-23447.38;;;8.82;100.00
29385;BME280;16367;48.736;9.218;2023-02-19T07:22:43;-23438.66;;;8.55;100.00
29385;BME280;16367;48.736;9.218;2023-02-19T07:24:46;-23440.56;;;8.61;100.00
29385;BME280;16367;48.736;9.218;2023-02-19T07:26:48;-23438.66;;;8.55;100.00
29385;BME280;16367;48.736;9.218;2023-02-19T07:28:51;-23438.81;;;8.55;100.00
29385;BME280;16367;48.736;9.218;2023-02-19T07:30:59;-23436.75;;;8.49;100.00
29385;BME280;16367;48.736;9.218;2023-02-19T07:33:02;-23441.34;;;8.63;100.00
29385;BME280;16367;48.736;9.218;2023-02-19T07:35:05;-23439.78;;;8.58;100.00
29385;BME280;16367;48.736;9.218;2023-02-19T07:37:09;-23434.22;;;8.41;100.00
29385;BME280;16367;48.736;9.218;2023-02-19T07:39:12;-23438.66;;;8.55;100.00
29385;BME280;16367;48.736;9.218;2023-02-19T07:41:15;-23437.88;;;8.52;100.00
29385;BME280;16367;48.736;9.218;2023-02-19T07:43:18;-23439.59;;;8.58;100.00
29385;BME280;16367;48.736;9.218;2023-02-19T07:45:21;-23438.34;;;8.54;100.00
29385;BME280;16367;48.736;9.218;2023-02-19T07:47:24;-23442.00;;;8.65;100.00
29385;BME280;16367;48.736;9.218;2023-02-19T07:49:27;-23441.53;;;8.64;100.00
29385;BME280;16367;48.736;9.218;2023-02-19T07:51:29;-23442.31;;;8.66;100.00
29385;BME280;16367;48.736;9.218;2023-02-19T07:53:34;-23444.69;;;8.74;100.00
29385;BME280;16367;48.736;9.218;2023-02-19T07:55:36;-23448.03;;;8.84;99.54
29385;BME280;16367;48.736;9.218;2023-02-19T07:57:39;-23448.19;;;8.85;97.50
29385;BME280;16367;48.736;9.218;2023-02-19T07:59:42;-23449.44;;;8.89;98.13
29385;BME280;16367;48.736;9.218;2023-02-19T08:01:44;-23454.69;;;9.06;97.60
29385;BME280;16367;48.736;9.218;2023-02-19T08:04:05;-23456.13;;;9.10;96.36
29385;BME280;16367;48.736;9.218;2023-02-19T08:06:08;-23453.25;;;9.01;95.84
29385;BME280;16367;48.736;9.218;2023-02-19T08:08:13;-23449.44;;;8.89;96.00
29385;BME280;16367;48.736;9.218;2023-02-19T08:10:17;-23454.53;;;9.05;96.19
29385;BME280;16367;48.736;9.218;2023-02-19T08:12:37;-23454.22;;;9.04;94.88
29385;BME280;16367;48.736;9.218;2023-02-19T08:14:58;-23454.84;;;9.06;94.20
29385;BME280;16367;48.736;9.218;2023-02-19T08:17:01;-23455.78;;;9.09;93.51
29385;BME280;16367;48.736;9.218;2023-02-19T08:19:03;-23457.06;;;9.13;92.57
29385;BME280;16367;48.736;9.218;2023-02-19T08:21:06;-23461.50;;;9.27;92.05
29385;BME280;16367;48.736;9.218;2023-02-19T08:23:10;-23458.03;;;9.16;92.31
29385;BME280;16367;48.736;9.218;2023-02-19T08:25:13;-23461.50;;;9.27;92.41
29385;BME280;16367;48.736;9.218;2023-02-19T08:27:17;-23460.41;;;9.24;92.27
29385;BME280;16367;48.736;9.218;2023-02-19T08:29:19;-23460.56;;;9.24;92.05
29385;BME280;16367;48.736;9.218;2023-02-19T08:31:22;-23462.47;;;9.30;91.87
29385;BME280;16367;48.736;9.218;2023-02-19T08:33:25;-23454.53;;;9.05;95.45
29385;BME280;16367;48.736;9.218;2023-02-19T08:35:28;-23453.91;;;9.03;98.46
29385;BME280;16367;48.736;9.218;2023-02-19T08:37:31;-23449.94;;;8.90;99.49
29385;BME280;16367;48.736;9.218;2023-02-19T08:39:33;-23445.97;;;8.78;100.00
29385;BME280;16367;48.736;9.218;2023-02-19T08:41:36;-23455.00;;;9.07;100.00
29385;BME280;16367;48.736;9.218;2023-02-19T08:43:41;-23457.22;;;9.14;99.91
29385;BME280;16367;48.736;9.218;2023-02-19T08:45:44;-23450.41;;;8.92;100.00
29385;BME280;16367;48.736;9.218;2023-02-19T08:47:47;-23452.63;;;8.99;100.00
29385;BME280;16367;48.736;9.218;2023-02-19T08:49:50;-23454.22;;;9.04;100.00
29385;BME280;16367;48.736;9.218;2023-02-19T08:51:52;-23451.84;;;8.96;100.00
29385;BME280;16367;48.736;9.218;2023-02-19T08:53:55;-23455.47;;;9.08;99.69
29385;BME280;16367;48.736;9.218;2023-02-19T08:55:58;-23451.19;;;8.94;100.00
29385;BME280;16367;48.736;9.218;2023-02-19T08:58:00;-23448.81;;;8.87;100.00
29385;BME280;16367;48.736;9.218;2023-02-19T09:00:06;-23452.47;;;8.98;100.00
29385;BME280;16367;48.736;9.218;2023-02-19T09:02:09;-23449.78;;;8.90;100.00
29385;BME280;16367;48.736;9.218;2023-02-19T09:04:13;-23444.22;;;8.72;99.82
29385;BME280;16367;48.736;9.218;2023-02-19T09:06:17;-23448.81;;;8.87;99.75
29385;BME280;16367;48.736;9.218;2023-02-19T09:08:20;-23450.09;;;8.91;100.00
29385;BME280;16367;48.736;9.218;2023-02-19T09:10:22;-23452.16;;;8.97;99.57
29385;BME280;16367;48.736;9.218;2023-02-19T09:12:25;-23448.34;;;8.85;99.05
29385;BME280;16367;48.736;9.218;2023-02-19T09:14:30;-23447.88;;;8.84;99.04
29385;BME280;16367;48.736;9.218;2023-02-19T09:16:35;-23453.41;;;9.01;99.20
29385;BME280;16367;48.736;9.218;2023-02-19T09:18:37;-23455.16;;;9.07;99.08
29385;BME280;16367;48.736;9.218;2023-02-19T09:20:40;-23453.56;;;9.02;96.73
29385;BME280;16367;48.736;9.218;2023-02-19T09:22:43;-23454.84;;;9.06;95.67
29385;BME280;16367;48.736;9.218;2023-02-19T09:24:46;-23452.63;;;8.99;95.14
29385;BME280;16367;48.736;9.218;2023-02-19T09:26:49;-23454.84;;;9.06;93.10
29385;BME280;16367;48.736;9.218;2023-02-19T09:28:52;-23455.63;;;9.09;92.78
29385;BME280;16367;48.736;9.218;2023-02-19T09:30:54;-23455.00;;;9.07;91.79
29385;BME280;16367;48.736;9.218;2023-02-19T09:32:58;-23462.94;;;9.32;91.52
29385;BME280;16367;48.736;9.218;2023-02-19T09:35:01;-23465.00;;;9.38;90.32
29385;BME280;16367;48.736;9.218;2023-02-19T09:37:04;-23461.66;;;9.28;89.72
29385;BME280;16367;48.736;9.218;2023-02-19T09:39:08;-23459.44;;;9.21;89.26
29385;BME280;16367;48.736;9.218;2023-02-19T09:41:17;-23464.53;;;9.37;88.75
29385;BME280;16367;48.736;9.218;2023-02-19T09:43:26;-23462.78;;;9.31;87.78
29385;BME280;16367;48.736;9.218;2023-02-19T09:45:30;-23464.53;;;9.37;86.74
29385;BME280;16367;48.736;9.218;2023-02-19T09:47:33;-23458.97;;;9.19;86.08
29385;BME280;16367;48.736;9.218;2023-02-19T09:49:39;-23469.28;;;9.52;85.41
29385;BME280;16367;48.736;9.218;2023-02-19T09:51:47;-23471.34;;;9.58;83.47
29385;BME280;16367;48.736;9.218;2023-02-19T09:53:51;-23464.03;;;9.35;83.48
29385;BME280;16367;48.736;9.218;2023-02-19T09:55:55;-23471.03;;;9.57;82.17
29385;BME280;16367;48.736;9.218;2023-02-19T09:57:59;-23471.97;;;9.60;82.16
29385;BME280;16367;48.736;9.218;2023-02-19T10:00:06;-23465.94;;;9.41;80.87
29385;BME280;16367;48.736;9.218;2023-02-19T10:02:16;-23469.75;;;9.53;80.81
29385;BME280;16367;48.736;9.218;2023-02-19T10:04:19;-23469.44;;;9.52;80.04
29385;BME280;16367;48.736;9.218;2023-02-19T10:06:25;-23468.97;;;9.51;79.40
29385;BME280;16367;48.736;9.218;2023-02-19T10:08:32;-23476.09;;;9.73;79.81
29385;BME280;16367;48.736;9.218;2023-02-19T10:10:36;-23477.03;;;9.76;78.35
29385;BME280;16367;48.736;9.218;2023-02-19T10:12:40;-23485.91;;;10.05;78.45
29385;BME280;16367;48.736;9.218;2023-02-19T10:14:46;-23482.44;;;9.94;78.40
29385;BME280;16367;48.736;9.218;2023-02-19T10:16:51;-23473.88;;;9.66;78.21
29385;BME280;16367;48.736;9.218;2023-02-19T10:18:54;-23479.91;;;9.86;78.12
29385;BME280;16367;48.736;9.218;2023-02-19T10:20:57;-23483.38;;;9.97;78.21
29385;BME280;16367;48.736;9.218;2023-02-19T10:23:03;-23481.16;;;9.90;77.95
29385;BME280;16367;48.736;9.218;2023-02-19T10:25:11;-23488.16;;;10.12;78.06
29385;BME280;16367;48.736;9.218;2023-02-19T10:27:15;-23480.22;;;9.87;78.42
29385;BME280;16367;48.736;9.218;2023-02-19T10:29:18;-23485.91;;;10.05;78.90
29385;BME280;16367;48.736;9.218;2023-02-19T10:31:23;-23482.75;;;9.95;79.46
29385;BME280;16367;48.736;9.218;2023-02-19T10:33:26;-23484.03;;;9.99;80.01
29385;BME280;16367;48.736;9.218;2023-02-19T10:35:34;-23472.59;;;9.62;81.26
29385;BME280;16367;48.736;9.218;2023-02-19T10:37:41;-23471.03;;;9.57;82.23
29385;BME280;16367;48.736;9.218;2023-02-19T10:39:48;-23472.28;;;9.61;82.13
29385;BME280;16367;48.736;9.218;2023-02-19T10:41:52;-23491.00;;;10.21;80.53
29385;BME280;16367;48.736;9.218;2023-02-19T10:44:00;-23486.72;;;10.07;80.31
29385;BME280;16367;48.736;9.218;2023-02-19T10:46:06;-23484.97;;;10.02;80.25
29385;BME280;16367;48.736;9.218;2023-02-19T10:48:22;-23491.47;;;10.22;80.41
29385;BME280;16367;48.736;9.218;2023-02-19T10:50:29;-23480.53;;;9.88;79.79
29385;BME280;16367;48.736;9.218;2023-02-19T10:52:33;-23481.47;;;9.91;78.76
29385;BME280;16367;48.736;9.218;2023-02-19T10:54:37;-23482.91;;;9.95;78.78
29385;BME280;16367;48.736;9.218;2023-02-19T10:56:42;-23496.38;;;10.38;78.82
29385;BME280;16367;48.736;9.218;2023-02-19T10:58:45;-23495.13;;;10.34;77.55